Terminal Aerodrome Forecast
Issued by NWS

Home | Current Version | Previous Version | Text Only | Print | Product List | Glossary On
Versions: 1 2 3 4 5 6 7 8 9 10 11 12 13 14 15 16 17 18
000
FTUS45 KGGW 211100
TAFSDY
TAF
KSDY 211126Z 2112/2212 VRB06KT P6SM FEW200
     FM212000 18007KT 6SM -RA SCT010 OVC040
     FM220400 30015KT 4SM -SN BR SCT007 OVC025
     FM220800 30018KT 2SM -SN BR OVC010
      AMD LTD TO CLD VIS AND WIND=

USA.gov is the U.S. government's official web portal to all federal, state and local government web resources and services.